createdAt,value
2018-07-08T00:02:21.140Z,11.97
2018-07-08T00:07:15.740Z,12.20
2018-07-08T00:12:10.356Z,17.10
2018-07-08T00:17:04.964Z,12.70
2018-07-08T00:21:59.537Z,12.97
2018-07-08T00:26:54.096Z,12.10
2018-07-08T00:31:48.379Z,12.93
2018-07-08T00:36:42.977Z,11.80
2018-07-08T00:41:37.626Z,12.23
2018-07-08T00:46:32.630Z,13.40
2018-07-08T00:51:27.204Z,13.47
2018-07-08T00:56:21.816Z,13.43
2018-07-08T01:01:16.367Z,14.70
2018-07-08T01:06:11.079Z,14.70
2018-07-08T01:11:05.666Z,13.67
2018-07-08T01:16:00.253Z,12.53
2018-07-08T01:20:54.846Z,14.70
2018-07-08T01:26:09.683Z,12.50
2018-07-08T01:31:04.409Z,12.83
2018-07-08T01:35:59.008Z,14.43
2018-07-08T01:40:53.557Z,13.13
2018-07-08T01:45:48.130Z,12.70
2018-07-08T01:50:42.690Z,13.40
2018-07-08T01:55:37.265Z,12.13
2018-07-08T02:00:31.869Z,12.60
2018-07-08T02:05:26.413Z,13.20
2018-07-08T02:10:20.981Z,12.13
2018-07-08T02:15:16.450Z,12.13
2018-07-08T02:20:11.023Z,11.93
2018-07-08T02:25:05.697Z,14.03
2018-07-08T02:30:00.328Z,12.33
2018-07-08T02:34:55.306Z,11.70
2018-07-08T02:39:49.884Z,11.70
2018-07-08T02:44:44.526Z,11.30
2018-07-08T02:49:39.451Z,12.50
2018-07-08T02:54:33.997Z,12.27
2018-07-08T02:59:28.604Z,12.77
2018-07-08T03:04:23.124Z,12.13
2018-07-08T03:09:17.657Z,14.00
2018-07-08T03:14:12.205Z,12.67
2018-07-08T03:19:06.913Z,12.33
2018-07-08T03:24:01.514Z,13.57
2018-07-08T03:28:56.016Z,13.00
2018-07-08T03:33:50.532Z,12.07
2018-07-08T03:38:45.140Z,15.07
2018-07-08T03:43:39.372Z,16.17
2018-07-08T03:48:33.889Z,14.20
2018-07-08T03:53:28.410Z,14.70
2018-07-08T03:58:22.954Z,15.37
2018-07-08T04:03:17.195Z,17.07
2018-07-08T04:08:11.760Z,16.77
2018-07-08T04:13:06.356Z,15.10
2018-07-08T04:18:05.107Z,14.73
2018-07-08T04:22:59.665Z,12.57
2018-07-08T04:27:54.238Z,11.03
2018-07-08T04:32:48.802Z,12.27
2018-07-08T04:37:43.346Z,11.57
2018-07-08T04:42:37.906Z,10.13
2018-07-08T04:47:32.422Z,10.98
2018-07-08T04:52:26.953Z,9.03
2018-07-08T04:57:21.491Z,10.53
2018-07-08T05:02:16.592Z,8.30
2018-07-08T05:07:11.112Z,9.10
2018-07-08T05:12:05.721Z,8.60
2018-07-08T05:17:00.212Z,8.95
2018-07-08T05:21:54.754Z,9.30
2018-07-08T05:26:49.465Z,10.80
2018-07-08T05:31:44.033Z,9.73
2018-07-08T05:36:38.756Z,9.63
2018-07-08T05:41:33.375Z,10.05
2018-07-08T05:46:27.974Z,9.68
2018-07-08T05:51:22.702Z,10.10
2018-07-08T05:56:17.282Z,10.05
2018-07-08T06:01:12.901Z,9.33
2018-07-08T06:06:08.156Z,12.63
2018-07-08T06:11:02.929Z,9.18
2018-07-08T06:15:57.897Z,8.75
2018-07-08T06:20:52.672Z,8.70
2018-07-08T06:25:47.467Z,9.00
2018-07-08T06:30:42.400Z,8.33
2018-07-08T06:35:37.182Z,10.63
2018-07-08T06:40:31.862Z,10.30
2018-07-08T06:45:26.790Z,10.55
2018-07-08T06:50:21.336Z,11.57
2018-07-08T06:55:15.984Z,11.63
2018-07-08T07:00:10.866Z,12.18
2018-07-08T07:05:05.200Z,12.03
2018-07-08T07:09:59.750Z,12.63
2018-07-08T07:14:54.371Z,11.48
2018-07-08T07:19:48.927Z,11.50
2018-07-08T07:24:43.484Z,11.80
2018-07-08T07:29:38.161Z,14.38
2018-07-08T07:34:32.760Z,11.90
2018-07-08T07:39:27.426Z,13.13
2018-07-08T07:44:21.990Z,13.13
2018-07-08T07:49:16.652Z,13.50
2018-07-08T07:54:11.380Z,12.15
2018-07-08T07:59:06.321Z,14.13
2018-07-08T08:04:01.014Z,13.93
2018-07-08T08:08:55.392Z,13.83
2018-07-08T08:14:04.054Z,16.15
2018-07-08T08:18:59.107Z,12.93
2018-07-08T08:23:53.983Z,12.78
2018-07-08T08:28:48.688Z,14.85
2018-07-08T08:33:46.477Z,13.70
2018-07-08T08:38:41.073Z,13.40
2018-07-08T08:43:35.748Z,13.95
2018-07-08T08:48:31.233Z,15.25
2018-07-08T08:53:25.926Z,13.28
2018-07-08T08:58:20.607Z,12.25
2018-07-08T09:03:15.457Z,14.33
2018-07-08T09:08:10.052Z,13.35
2018-07-08T09:13:04.942Z,11.75
2018-07-08T09:17:59.554Z,12.93
2018-07-08T09:22:54.577Z,12.60
2018-07-08T09:27:49.230Z,12.20
2018-07-08T09:32:44.041Z,13.25
2018-07-08T09:37:38.342Z,12.37
2018-07-08T09:42:32.929Z,15.15
2018-07-08T09:47:27.701Z,11.85
2018-07-08T09:52:22.422Z,11.48
2018-07-08T09:57:17.017Z,10.45
2018-07-08T10:02:11.769Z,10.18
2018-07-08T10:07:06.492Z,10.45
2018-07-08T10:12:01.465Z,10.08
2018-07-08T10:16:56.396Z,13.22
2018-07-08T10:21:51.826Z,10.38
2018-07-08T10:26:54.897Z,10.75
2018-07-08T10:31:52.371Z,9.53
2018-07-08T10:36:47.533Z,10.58
2018-07-08T10:41:42.929Z,10.60
2018-07-08T10:46:38.135Z,8.88
2018-07-08T10:51:32.944Z,9.60
2018-07-08T10:56:28.885Z,8.05
2018-07-08T11:01:23.837Z,8.40
2018-07-08T11:06:18.639Z,7.30
2018-07-08T11:11:13.973Z,7.97
2018-07-08T11:16:09.017Z,9.18
2018-07-08T11:21:04.682Z,11.15
2018-07-08T11:25:59.532Z,8.50
2018-07-08T11:30:54.212Z,9.58
2018-07-08T11:35:49.005Z,9.93
2018-07-08T11:40:43.852Z,9.83
2018-07-08T11:45:38.730Z,11.08
2018-07-08T11:50:33.457Z,9.48
2018-07-08T11:55:28.723Z,7.00
2018-07-08T12:00:23.421Z,7.08
2018-07-08T12:05:18.124Z,4.90
2018-07-08T12:10:13.963Z,5.72
2018-07-08T12:15:08.804Z,6.75
2018-07-08T12:20:04.038Z,5.95
2018-07-08T12:24:59.227Z,5.30
2018-07-08T12:29:53.882Z,6.65
2018-07-08T12:34:48.230Z,4.10
2018-07-08T12:39:43.241Z,5.60
2018-07-08T12:44:37.926Z,5.00
2018-07-08T12:49:32.796Z,4.87
2018-07-08T12:54:27.527Z,6.10
2018-07-08T12:59:22.312Z,6.47
2018-07-08T13:04:17.197Z,6.35
2018-07-08T13:09:11.865Z,4.35
2018-07-08T13:14:07.346Z,7.10
2018-07-08T13:19:01.955Z,5.53
2018-07-08T13:23:56.721Z,6.03
2018-07-08T13:28:51.371Z,6.15
2018-07-08T13:33:45.815Z,7.15
2018-07-08T13:38:40.765Z,6.62
2018-07-08T13:43:35.661Z,7.10
2018-07-08T13:48:30.413Z,9.35
2018-07-08T13:53:24.725Z,6.87
2018-07-08T13:58:19.070Z,8.88
2018-07-08T14:03:13.675Z,7.28
2018-07-08T14:08:08.473Z,6.75
2018-07-08T14:13:03.577Z,7.53
2018-07-08T14:17:58.386Z,7.17
2018-07-08T14:22:53.161Z,6.87
2018-07-08T14:27:47.500Z,6.80
2018-07-08T14:32:42.429Z,6.50
2018-07-08T14:37:37.237Z,6.25
2018-07-08T14:42:31.785Z,6.80
2018-07-08T14:47:26.392Z,8.70
2018-07-08T14:52:21.118Z,9.75
2018-07-08T14:57:15.882Z,7.65
2018-07-08T15:02:10.602Z,7.80
2018-07-08T15:07:05.441Z,8.60
2018-07-08T15:12:00.165Z,9.55
2018-07-08T15:16:54.793Z,8.03
2018-07-08T15:21:49.588Z,9.43
2018-07-08T15:26:44.320Z,6.70
2018-07-08T15:31:39.023Z,6.42
2018-07-08T15:36:33.885Z,7.50
2018-07-08T15:41:28.636Z,6.05
2018-07-08T15:46:23.289Z,7.75
2018-07-08T15:51:17.910Z,7.10
2018-07-08T15:56:12.713Z,5.83
2018-07-08T16:01:07.558Z,6.50
2018-07-08T16:06:02.242Z,6.83
2018-07-08T16:10:56.905Z,7.75
2018-07-08T16:15:51.785Z,6.55
2018-07-08T16:20:46.305Z,7.35
2018-07-08T16:25:46.002Z,8.98
2018-07-08T16:30:40.475Z,9.33
2018-07-08T16:35:35.097Z,7.58
2018-07-08T16:40:29.933Z,6.58
2018-07-08T16:45:24.670Z,7.78
2018-07-08T16:50:20.477Z,6.45
2018-07-08T16:55:15.709Z,6.33
2018-07-08T17:00:12.181Z,7.45
2018-07-08T17:05:06.985Z,7.30
2018-07-08T17:10:01.598Z,6.55
2018-07-08T17:14:56.215Z,7.25
2018-07-08T17:19:52.899Z,5.85
2018-07-08T17:24:47.757Z,6.58
2018-07-08T17:29:43.101Z,5.78
2018-07-08T17:34:38.136Z,9.85
2018-07-08T17:39:32.850Z,6.35
2018-07-08T17:44:27.461Z,5.40
2018-07-08T17:49:22.156Z,5.60
2018-07-08T17:54:16.688Z,5.40
2018-07-08T17:59:11.260Z,6.10
2018-07-08T18:04:06.092Z,6.50
2018-07-08T18:09:00.826Z,6.72
2018-07-08T18:13:56.187Z,6.75
2018-07-08T18:18:50.929Z,4.78
2018-07-08T18:23:45.547Z,5.60
2018-07-08T18:28:40.105Z,4.55
2018-07-08T18:33:34.925Z,4.67
2018-07-08T18:38:29.488Z,3.17
2018-07-08T18:43:24.190Z,5.70
2018-07-08T18:48:18.948Z,6.20
2018-07-08T18:53:13.525Z,5.62
2018-07-08T18:58:08.110Z,5.37
2018-07-08T19:03:02.668Z,4.28
2018-07-08T19:07:57.432Z,4.17
2018-07-08T19:12:51.961Z,5.08
2018-07-08T19:17:46.579Z,3.87
2018-07-08T19:22:41.222Z,6.50
2018-07-08T19:27:35.898Z,4.95
2018-07-08T19:32:30.522Z,4.75
2018-07-08T19:37:25.641Z,5.85
2018-07-08T19:42:20.334Z,5.70
2018-07-08T19:47:14.913Z,5.60
2018-07-08T19:52:09.451Z,5.90
2018-07-08T19:57:04.146Z,3.85
2018-07-08T20:01:58.935Z,3.77
2018-07-08T20:06:53.185Z,5.65
2018-07-08T20:11:47.897Z,4.78
2018-07-08T20:16:42.466Z,3.20
2018-07-08T20:21:37.303Z,4.25
2018-07-08T20:26:31.777Z,5.30
2018-07-08T20:31:26.445Z,3.55
2018-07-08T20:36:21.128Z,5.37
2018-07-08T20:41:15.765Z,3.65
2018-07-08T20:46:10.567Z,3.35
2018-07-08T20:51:05.225Z,4.08
2018-07-08T20:56:00.597Z,4.20
2018-07-08T21:00:55.203Z,3.25
2018-07-08T21:05:49.912Z,4.25
2018-07-08T21:10:45.253Z,4.12
2018-07-08T21:15:39.551Z,4.65
2018-07-08T21:20:34.592Z,5.75
2018-07-08T21:25:29.182Z,5.53
2018-07-08T21:30:23.450Z,5.33
2018-07-08T21:35:18.058Z,4.95
2018-07-08T21:40:12.922Z,4.85
2018-07-08T21:45:07.506Z,3.90
2018-07-08T21:50:02.194Z,4.72
2018-07-08T21:54:56.825Z,3.40
2018-07-08T21:59:51.441Z,4.47
2018-07-08T22:04:46.133Z,6.00
2018-07-08T22:09:40.893Z,4.50
2018-07-08T22:14:35.433Z,4.90
2018-07-08T22:19:29.947Z,5.03
2018-07-08T22:24:24.509Z,6.07
2018-07-08T22:29:19.095Z,4.80
2018-07-08T22:34:13.757Z,5.87
2018-07-08T22:39:09.438Z,3.67
2018-07-08T22:44:03.978Z,5.77
2018-07-08T22:48:58.545Z,4.50
2018-07-08T22:53:53.559Z,4.80
2018-07-08T22:58:48.125Z,6.00
2018-07-08T23:03:47.787Z,5.07
2018-07-08T23:08:42.360Z,7.00
2018-07-08T23:13:36.897Z,5.93
2018-07-08T23:18:31.453Z,4.73
2018-07-08T23:23:25.986Z,4.17
2018-07-08T23:28:20.509Z,3.47
2018-07-08T23:33:16.062Z,6.17
2018-07-08T23:38:10.611Z,4.70
2018-07-08T23:43:05.453Z,4.27
2018-07-08T23:48:00.000Z,5.00
2018-07-08T23:52:54.649Z,4.30
2018-07-08T23:57:49.256Z,5.73
